メインページ
METAR-TAF:

METAR-TAF

空港 :

ルクセンブルク, ルクセンブルク

ルクセンブルク-フィンデル空港

緯度: 49-37N, 経度: 006-13E, 海抜: 376m

現時点の気象観測

当レポートは20分前の01:20(UTC)に作成
東/北東の風 3kt
気温 3°C
湿度 65%
気圧 1021 hPa
視程10km以上

METAR: ELLX 240120Z AUTO 06003KT 9999 FEW096/// 03/M03 Q1021 NOSIG

時間: 03:40 (01:40 UTC)

予報

当レポートは2時間40分前の23:00(UTC)に作成
予報は24日の 00時(UTC)から 25日の 06時(UTC)まで有効
東/北東の風 7kt
視程10km以上
1,500メートル以下は雲なし、積乱雲なし
24日の 07時(UTC)から 24日の 10時(UTC)まで徐々に
西/南西の風 5kt

TAF: ELLX 232300Z 2400/2506 06007KT CAVOK BECMG 2407/2410 24005KT

4,000以上の空港の気象観測と天気予報(METAR報とTAF報)

利用可能な観測所は地図上に黄色い丸と赤い丸で示す。

丸の上にカーソルを重ねると観測所名を参照できる。

次にクリックすると気象観測と天気予報を参照できる。

マップの切り替え:黒色「×」印の緑ボタンをクリックして拡大、「-」印の緑ボタンをクリックして縮小、緑色の三角印をクリックして隣りの地図に切り替え


METAR-TAF: